sensor_id;sensor_type;location;lat;lon;timestamp;P1;durP1;ratioP1;P2;durP2;ratioP2
80123;SDS011;69433;48.642;9.142;2023-11-21T00:00:38;20.55;;;14.60;;
80123;SDS011;69433;48.642;9.142;2023-11-21T00:03:04;21.30;;;14.02;;
80123;SDS011;69433;48.642;9.142;2023-11-21T00:05:29;19.92;;;14.18;;
80123;SDS011;69433;48.642;9.142;2023-11-21T00:07:54;21.08;;;14.73;;
80123;SDS011;69433;48.642;9.142;2023-11-21T00:10:20;18.90;;;13.57;;
80123;SDS011;69433;48.642;9.142;2023-11-21T00:12:45;20.67;;;14.63;;
80123;SDS011;69433;48.642;9.142;2023-11-21T00:15:13;20.48;;;14.10;;
80123;SDS011;69433;48.642;9.142;2023-11-21T00:17:38;19.70;;;13.63;;
80123;SDS011;69433;48.642;9.142;2023-11-21T00:20:05;19.27;;;13.40;;
80123;SDS011;69433;48.642;9.142;2023-11-21T00:22:38;19.33;;;13.45;;
80123;SDS011;69433;48.642;9.142;2023-11-21T00:25:05;18.63;;;13.43;;
80123;SDS011;69433;48.642;9.142;2023-11-21T00:27:31;19.50;;;13.45;;
80123;SDS011;69433;48.642;9.142;2023-11-21T00:29:56;18.52;;;12.98;;
80123;SDS011;69433;48.642;9.142;2023-11-21T00:32:22;18.95;;;13.10;;
80123;SDS011;69433;48.642;9.142;2023-11-21T00:34:51;20.48;;;12.77;;
80123;SDS011;69433;48.642;9.142;2023-11-21T00:37:17;17.73;;;12.63;;
80123;SDS011;69433;48.642;9.142;2023-11-21T00:39:42;18.23;;;12.95;;
80123;SDS011;69433;48.642;9.142;2023-11-21T00:42:08;17.38;;;12.32;;
80123;SDS011;69433;48.642;9.142;2023-11-21T00:44:37;18.90;;;13.50;;
80123;SDS011;69433;48.642;9.142;2023-11-21T00:47:10;18.77;;;13.63;;
80123;SDS011;69433;48.642;9.142;2023-11-21T00:49:35;18.35;;;12.02;;
80123;SDS011;69433;48.642;9.142;2023-11-21T00:52:00;16.95;;;12.18;;
80123;SDS011;69433;48.642;9.142;2023-11-21T00:54:30;16.17;;;12.63;;
80123;SDS011;69433;48.642;9.142;2023-11-21T00:56:55;16.60;;;12.50;;
80123;SDS011;69433;48.642;9.142;2023-11-21T00:59:28;17.65;;;12.50;;
80123;SDS011;69433;48.642;9.142;2023-11-21T01:01:53;16.10;;;12.10;;
80123;SDS011;69433;48.642;9.142;2023-11-21T01:04:21;17.42;;;11.52;;
80123;SDS011;69433;48.642;9.142;2023-11-21T01:06:46;18.55;;;12.65;;
80123;SDS011;69433;48.642;9.142;2023-11-21T01:09:12;15.80;;;11.32;;
80123;SDS011;69433;48.642;9.142;2023-11-21T01:11:38;17.15;;;12.20;;
80123;SDS011;69433;48.642;9.142;2023-11-21T01:14:07;16.60;;;11.32;;
80123;SDS011;69433;48.642;9.142;2023-11-21T01:16:34;23.67;;;11.30;;
80123;SDS011;69433;48.642;9.142;2023-11-21T01:19:01;17.58;;;12.32;;
80123;SDS011;69433;48.642;9.142;2023-11-21T01:24:13;15.43;;;11.20;;
80123;SDS011;69433;48.642;9.142;2023-11-21T01:26:38;15.57;;;11.15;;
80123;SDS011;69433;48.642;9.142;2023-11-21T01:29:03;16.38;;;11.60;;
80123;SDS011;69433;48.642;9.142;2023-11-21T01:31:29;16.38;;;11.20;;
80123;SDS011;69433;48.642;9.142;2023-11-21T01:33:55;16.48;;;10.98;;
80123;SDS011;69433;48.642;9.142;2023-11-21T01:36:21;16.42;;;11.20;;
80123;SDS011;69433;48.642;9.142;2023-11-21T01:38:46;14.48;;;10.70;;
80123;SDS011;69433;48.642;9.142;2023-11-21T01:41:15;15.73;;;11.10;;
80123;SDS011;69433;48.642;9.142;2023-11-21T01:43:40;13.65;;;10.27;;
80123;SDS011;69433;48.642;9.142;2023-11-21T01:46:11;14.00;;;10.45;;
80123;SDS011;69433;48.642;9.142;2023-11-21T01:48:37;15.77;;;10.98;;
80123;SDS011;69433;48.642;9.142;2023-11-21T01:51:03;17.20;;;11.18;;
80123;SDS011;69433;48.642;9.142;2023-11-21T01:53:28;13.52;;;10.43;;
80123;SDS011;69433;48.642;9.142;2023-11-21T01:55:55;14.13;;;11.38;;
80123;SDS011;69433;48.642;9.142;2023-11-21T01:58:23;13.95;;;10.13;;
80123;SDS011;69433;48.642;9.142;2023-11-21T02:00:49;14.77;;;10.30;;
80123;SDS011;69433;48.642;9.142;2023-11-21T02:03:16;15.40;;;11.05;;
80123;SDS011;69433;48.642;9.142;2023-11-21T02:05:43;15.25;;;10.10;;
80123;SDS011;69433;48.642;9.142;2023-11-21T02:08:11;14.57;;;9.65;;
80123;SDS011;69433;48.642;9.142;2023-11-21T02:10:36;13.75;;;10.07;;
80123;SDS011;69433;48.642;9.142;2023-11-21T02:15:37;16.05;;;10.10;;
80123;SDS011;69433;48.642;9.142;2023-11-21T02:18:05;14.85;;;10.05;;
80123;SDS011;69433;48.642;9.142;2023-11-21T02:20:31;14.95;;;9.75;;
80123;SDS011;69433;48.642;9.142;2023-11-21T02:22:59;14.02;;;10.13;;
80123;SDS011;69433;48.642;9.142;2023-11-21T02:25:33;13.45;;;9.55;;
80123;SDS011;69433;48.642;9.142;2023-11-21T02:28:01;13.27;;;9.38;;
80123;SDS011;69433;48.642;9.142;2023-11-21T02:30:27;13.68;;;9.35;;
80123;SDS011;69433;48.642;9.142;2023-11-21T02:33:01;14.35;;;9.48;;
80123;SDS011;69433;48.642;9.142;2023-11-21T02:35:26;11.95;;;8.98;;
80123;SDS011;69433;48.642;9.142;2023-11-21T02:37:52;13.43;;;9.23;;
80123;SDS011;69433;48.642;9.142;2023-11-21T02:40:18;12.55;;;9.50;;
80123;SDS011;69433;48.642;9.142;2023-11-21T02:42:48;14.57;;;10.43;;
80123;SDS011;69433;48.642;9.142;2023-11-21T02:45:14;12.18;;;9.00;;
80123;SDS011;69433;48.642;9.142;2023-11-21T02:47:50;13.43;;;9.40;;
80123;SDS011;69433;48.642;9.142;2023-11-21T02:50:18;12.30;;;8.52;;
80123;SDS011;69433;48.642;9.142;2023-11-21T02:52:55;11.68;;;9.05;;
80123;SDS011;69433;48.642;9.142;2023-11-21T02:55:28;12.68;;;9.00;;
80123;SDS011;69433;48.642;9.142;2023-11-21T02:57:54;11.63;;;9.02;;
80123;SDS011;69433;48.642;9.142;2023-11-21T03:00:21;11.63;;;8.68;;
80123;SDS011;69433;48.642;9.142;2023-11-21T03:02:59;12.48;;;8.57;;
80123;SDS011;69433;48.642;9.142;2023-11-21T03:07:57;12.32;;;8.93;;
80123;SDS011;69433;48.642;9.142;2023-11-21T03:10:23;11.95;;;8.07;;
80123;SDS011;69433;48.642;9.142;2023-11-21T03:12:49;11.48;;;8.00;;
80123;SDS011;69433;48.642;9.142;2023-11-21T03:15:15;11.45;;;8.38;;
80123;SDS011;69433;48.642;9.142;2023-11-21T03:17:41;11.90;;;8.55;;
80123;SDS011;69433;48.642;9.142;2023-11-21T03:20:21;11.40;;;8.20;;
80123;SDS011;69433;48.642;9.142;2023-11-21T03:22:46;12.20;;;8.45;;
80123;SDS011;69433;48.642;9.142;2023-11-21T03:25:11;11.13;;;7.75;;
80123;SDS011;69433;48.642;9.142;2023-11-21T03:27:37;10.95;;;7.85;;
80123;SDS011;69433;48.642;9.142;2023-11-21T03:30:10;12.27;;;8.55;;
80123;SDS011;69433;48.642;9.142;2023-11-21T03:32:36;11.10;;;8.07;;
80123;SDS011;69433;48.642;9.142;2023-11-21T03:35:12;11.55;;;7.95;;
80123;SDS011;69433;48.642;9.142;2023-11-21T03:37:38;11.55;;;7.20;;
80123;SDS011;69433;48.642;9.142;2023-11-21T03:40:06;10.27;;;7.80;;
80123;SDS011;69433;48.642;9.142;2023-11-21T03:42:33;10.45;;;8.20;;
80123;SDS011;69433;48.642;9.142;2023-11-21T03:45:00;10.02;;;7.47;;
80123;SDS011;69433;48.642;9.142;2023-11-21T03:47:26;10.27;;;7.60;;
80123;SDS011;69433;48.642;9.142;2023-11-21T03:49:52;11.23;;;7.93;;
80123;SDS011;69433;48.642;9.142;2023-11-21T03:52:18;9.93;;;7.60;;
80123;SDS011;69433;48.642;9.142;2023-11-21T03:54:43;10.82;;;7.25;;
80123;SDS011;69433;48.642;9.142;2023-11-21T03:57:09;10.98;;;7.82;;
80123;SDS011;69433;48.642;9.142;2023-11-21T03:59:34;10.95;;;7.72;;
80123;SDS011;69433;48.642;9.142;2023-11-21T04:02:03;10.60;;;7.25;;
80123;SDS011;69433;48.642;9.142;2023-11-21T04:04:28;9.93;;;6.72;;
80123;SDS011;69433;48.642;9.142;2023-11-21T04:06:59;8.82;;;6.18;;
80123;SDS011;69433;48.642;9.142;2023-11-21T04:09:25;8.10;;;5.93;;
80123;SDS011;69433;48.642;9.142;2023-11-21T04:11:56;7.88;;;5.85;;
80123;SDS011;69433;48.642;9.142;2023-11-21T04:14:28;7.43;;;4.93;;
80123;SDS011;69433;48.642;9.142;2023-11-21T04:17:02;6.85;;;5.10;;
80123;SDS011;69433;48.642;9.142;2023-11-21T04:19:29;7.18;;;4.93;;
80123;SDS011;69433;48.642;9.142;2023-11-21T04:21:58;7.40;;;5.10;;
80123;SDS011;69433;48.642;9.142;2023-11-21T04:24:24;7.20;;;5.00;;
80123;SDS011;69433;48.642;9.142;2023-11-21T04:26:51;7.85;;;4.50;;
80123;SDS011;69433;48.642;9.142;2023-11-21T04:29:16;8.98;;;4.90;;
80123;SDS011;69433;48.642;9.142;2023-11-21T04:31:44;6.93;;;4.78;;
80123;SDS011;69433;48.642;9.142;2023-11-21T04:34:09;8.32;;;4.80;;
80123;SDS011;69433;48.642;9.142;2023-11-21T04:36:36;6.60;;;4.80;;
80123;SDS011;69433;48.642;9.142;2023-11-21T04:39:01;6.25;;;4.50;;
80123;SDS011;69433;48.642;9.142;2023-11-21T04:41:27;6.60;;;4.57;;
80123;SDS011;69433;48.642;9.142;2023-11-21T04:43:57;7.22;;;5.05;;
80123;SDS011;69433;48.642;9.142;2023-11-21T04:46:23;8.77;;;5.05;;
80123;SDS011;69433;48.642;9.142;2023-11-21T04:48:49;6.60;;;5.00;;
80123;SDS011;69433;48.642;9.142;2023-11-21T04:51:14;7.40;;;5.03;;
80123;SDS011;69433;48.642;9.142;2023-11-21T04:53:39;7.18;;;4.88;;
80123;SDS011;69433;48.642;9.142;2023-11-21T04:56:05;6.68;;;4.68;;
80123;SDS011;69433;48.642;9.142;2023-11-21T04:58:30;7.82;;;4.88;;
80123;SDS011;69433;48.642;9.142;2023-11-21T05:00:59;6.85;;;4.63;;
80123;SDS011;69433;48.642;9.142;2023-11-21T05:03:28;6.95;;;4.95;;
80123;SDS011;69433;48.642;9.142;2023-11-21T05:05:55;7.95;;;4.85;;
80123;SDS011;69433;48.642;9.142;2023-11-21T05:08:28;7.53;;;5.13;;
80123;SDS011;69433;48.642;9.142;2023-11-21T05:10:54;6.22;;;4.70;;
80123;SDS011;69433;48.642;9.142;2023-11-21T05:13:20;6.45;;;4.45;;
80123;SDS011;69433;48.642;9.142;2023-11-21T05:15:55;6.93;;;4.60;;
80123;SDS011;69433;48.642;9.142;2023-11-21T05:18:24;7.93;;;4.75;;
80123;SDS011;69433;48.642;9.142;2023-11-21T05:20:55;6.82;;;4.40;;
80123;SDS011;69433;48.642;9.142;2023-11-21T05:23:21;4.85;;;3.55;;
80123;SDS011;69433;48.642;9.142;2023-11-21T05:25:48;6.47;;;4.10;;
80123;SDS011;69433;48.642;9.142;2023-11-21T05:28:13;8.40;;;4.35;;
80123;SDS011;69433;48.642;9.142;2023-11-21T05:30:38;6.47;;;4.15;;
80123;SDS011;69433;48.642;9.142;2023-11-21T05:33:04;9.27;;;4.10;;
80123;SDS011;69433;48.642;9.142;2023-11-21T05:35:30;5.85;;;4.15;;
80123;SDS011;69433;48.642;9.142;2023-11-21T05:37:56;5.40;;;4.00;;
80123;SDS011;69433;48.642;9.142;2023-11-21T05:40:21;7.10;;;3.85;;
80123;SDS011;69433;48.642;9.142;2023-11-21T05:42:47;6.72;;;4.28;;
80123;SDS011;69433;48.642;9.142;2023-11-21T05:45:19;6.47;;;4.32;;
80123;SDS011;69433;48.642;9.142;2023-11-21T05:47:44;6.25;;;4.00;;
80123;SDS011;69433;48.642;9.142;2023-11-21T05:50:13;6.20;;;3.80;;
80123;SDS011;69433;48.642;9.142;2023-11-21T05:52:47;7.07;;;4.05;;
80123;SDS011;69433;48.642;9.142;2023-11-21T05:55:14;5.80;;;4.07;;
80123;SDS011;69433;48.642;9.142;2023-11-21T05:57:41;6.32;;;3.92;;
80123;SDS011;69433;48.642;9.142;2023-11-21T06:00:22;5.47;;;4.03;;
80123;SDS011;69433;48.642;9.142;2023-11-21T06:02:51;7.15;;;4.00;;
80123;SDS011;69433;48.642;9.142;2023-11-21T06:05:18;6.63;;;4.10;;
80123;SDS011;69433;48.642;9.142;2023-11-21T06:07:45;6.22;;;4.25;;
80123;SDS011;69433;48.642;9.142;2023-11-21T06:10:29;6.07;;;3.55;;
80123;SDS011;69433;48.642;9.142;2023-11-21T06:12:56;5.32;;;3.58;;
80123;SDS011;69433;48.642;9.142;2023-11-21T06:15:24;6.00;;;4.55;;
80123;SDS011;69433;48.642;9.142;2023-11-21T06:17:53;5.25;;;3.63;;
80123;SDS011;69433;48.642;9.142;2023-11-21T06:20:19;6.32;;;3.65;;
80123;SDS011;69433;48.642;9.142;2023-11-21T06:22:49;4.95;;;3.50;;
80123;SDS011;69433;48.642;9.142;2023-11-21T06:25:16;6.18;;;3.63;;
80123;SDS011;69433;48.642;9.142;2023-11-21T06:27:43;5.38;;;4.22;;
80123;SDS011;69433;48.642;9.142;2023-11-21T06:30:11;4.88;;;3.30;;
80123;SDS011;69433;48.642;9.142;2023-11-21T06:32:42;5.28;;;3.35;;
80123;SDS011;69433;48.642;9.142;2023-11-21T06:35:10;7.05;;;3.72;;
80123;SDS011;69433;48.642;9.142;2023-11-21T06:37:36;5.38;;;3.50;;
80123;SDS011;69433;48.642;9.142;2023-11-21T06:40:02;7.00;;;3.72;;
80123;SDS011;69433;48.642;9.142;2023-11-21T06:42:42;5.93;;;3.30;;
80123;SDS011;69433;48.642;9.142;2023-11-21T06:45:09;6.60;;;3.40;;
80123;SDS011;69433;48.642;9.142;2023-11-21T06:47:36;4.47;;;2.88;;
80123;SDS011;69433;48.642;9.142;2023-11-21T06:50:03;6.90;;;3.38;;
80123;SDS011;69433;48.642;9.142;2023-11-21T06:52:33;6.13;;;3.30;;
80123;SDS011;69433;48.642;9.142;2023-11-21T06:54:58;5.60;;;3.28;;
80123;SDS011;69433;48.642;9.142;2023-11-21T06:57:24;6.75;;;3.80;;
80123;SDS011;69433;48.642;9.142;2023-11-21T06:59:50;7.40;;;3.78;;
80123;SDS011;69433;48.642;9.142;2023-11-21T07:02:16;4.70;;;2.97;;
80123;SDS011;69433;48.642;9.142;2023-11-21T07:04:43;7.88;;;3.53;;
80123;SDS011;69433;48.642;9.142;2023-11-21T07:07:18;5.32;;;3.20;;
80123;SDS011;69433;48.642;9.142;2023-11-21T07:09:46;5.80;;;3.70;;
80123;SDS011;69433;48.642;9.142;2023-11-21T07:12:13;5.18;;;3.53;;
80123;SDS011;69433;48.642;9.142;2023-11-21T07:14:39;5.97;;;3.45;;
80123;SDS011;69433;48.642;9.142;2023-11-21T07:17:08;5.70;;;3.22;;
80123;SDS011;69433;48.642;9.142;2023-11-21T07:19:37;4.43;;;2.95;;
80123;SDS011;69433;48.642;9.142;2023-11-21T07:22:03;5.75;;;2.92;;
80123;SDS011;69433;48.642;9.142;2023-11-21T07:24:33;4.80;;;2.90;;
80123;SDS011;69433;48.642;9.142;2023-11-21T07:26:59;4.68;;;3.22;;
80123;SDS011;69433;48.642;9.142;2023-11-21T07:29:24;5.32;;;3.22;;
80123;SDS011;69433;48.642;9.142;2023-11-21T07:31:57;4.47;;;2.75;;
80123;SDS011;69433;48.642;9.142;2023-11-21T07:34:22;5.65;;;3.38;;
80123;SDS011;69433;48.642;9.142;2023-11-21T07:36:48;5.35;;;3.15;;
80123;SDS011;69433;48.642;9.142;2023-11-21T07:39:15;4.60;;;3.08;;
80123;SDS011;69433;48.642;9.142;2023-11-21T07:41:45;6.03;;;3.10;;
80123;SDS011;69433;48.642;9.142;2023-11-21T07:44:13;5.03;;;3.17;;
80123;SDS011;69433;48.642;9.142;2023-11-21T07:46:40;4.60;;;2.83;;
80123;SDS011;69433;48.642;9.142;2023-11-21T07:49:06;5.75;;;3.20;;
80123;SDS011;69433;48.642;9.142;2023-11-21T07:51:41;4.68;;;3.10;;
80123;SDS011;69433;48.642;9.142;2023-11-21T07:54:08;4.40;;;3.17;;
80123;SDS011;69433;48.642;9.142;2023-11-21T07:56:35;4.40;;;3.03;;
80123;SDS011;69433;48.642;9.142;2023-11-21T07:59:00;4.57;;;2.83;;
80123;SDS011;69433;48.642;9.142;2023-11-21T08:01:27;4.72;;;3.17;;
80123;SDS011;69433;48.642;9.142;2023-11-21T08:03:58;4.13;;;2.75;;
80123;SDS011;69433;48.642;9.142;2023-11-21T08:06:41;4.95;;;2.80;;
80123;SDS011;69433;48.642;9.142;2023-11-21T08:09:07;5.35;;;2.90;;
80123;SDS011;69433;48.642;9.142;2023-11-21T08:11:33;4.32;;;3.00;;
80123;SDS011;69433;48.642;9.142;2023-11-21T08:13:58;4.00;;;2.83;;
80123;SDS011;69433;48.642;9.142;2023-11-21T08:16:24;5.03;;;3.13;;
80123;SDS011;69433;48.642;9.142;2023-11-21T08:18:50;5.20;;;2.80;;
80123;SDS011;69433;48.642;9.142;2023-11-21T08:21:16;5.25;;;2.92;;
80123;SDS011;69433;48.642;9.142;2023-11-21T08:23:42;4.05;;;2.63;;
80123;SDS011;69433;48.642;9.142;2023-11-21T08:26:09;4.32;;;2.83;;
80123;SDS011;69433;48.642;9.142;2023-11-21T08:28:40;5.63;;;3.20;;
80123;SDS011;69433;48.642;9.142;2023-11-21T08:31:05;3.78;;;2.53;;
80123;SDS011;69433;48.642;9.142;2023-11-21T08:33:37;3.85;;;2.90;;
80123;SDS011;69433;48.642;9.142;2023-11-21T08:36:06;3.88;;;2.78;;
80123;SDS011;69433;48.642;9.142;2023-11-21T08:38:32;4.38;;;2.63;;
80123;SDS011;69433;48.642;9.142;2023-11-21T08:41:00;3.85;;;2.45;;
80123;SDS011;69433;48.642;9.142;2023-11-21T08:43:26;4.25;;;2.70;;
80123;SDS011;69433;48.642;9.142;2023-11-21T08:45:54;4.00;;;2.75;;
80123;SDS011;69433;48.642;9.142;2023-11-21T08:48:22;3.78;;;2.88;;
80123;SDS011;69433;48.642;9.142;2023-11-21T08:50:47;3.53;;;2.50;;
80123;SDS011;69433;48.642;9.142;2023-11-21T08:53:17;4.05;;;2.40;;
80123;SDS011;69433;48.642;9.142;2023-11-21T08:55:42;4.35;;;2.90;;
80123;SDS011;69433;48.642;9.142;2023-11-21T08:58:09;4.13;;;2.50;;
80123;SDS011;69433;48.642;9.142;2023-11-21T09:00:39;4.43;;;2.72;;
80123;SDS011;69433;48.642;9.142;2023-11-21T09:03:06;3.75;;;2.80;;
80123;SDS011;69433;48.642;9.142;2023-11-21T09:05:33;4.97;;;2.42;;
80123;SDS011;69433;48.642;9.142;2023-11-21T09:07:59;3.20;;;2.42;;
80123;SDS011;69433;48.642;9.142;2023-11-21T09:10:24;3.97;;;2.53;;
80123;SDS011;69433;48.642;9.142;2023-11-21T09:12:50;3.92;;;2.50;;
80123;SDS011;69433;48.642;9.142;2023-11-21T09:15:17;4.60;;;2.60;;
80123;SDS011;69433;48.642;9.142;2023-11-21T09:17:42;3.70;;;2.40;;
80123;SDS011;69433;48.642;9.142;2023-11-21T09:20:09;4.20;;;2.40;;
80123;SDS011;69433;48.642;9.142;2023-11-21T09:22:35;3.53;;;2.20;;
80123;SDS011;69433;48.642;9.142;2023-11-21T09:25:01;4.63;;;2.38;;
80123;SDS011;69433;48.642;9.142;2023-11-21T09:27:30;3.60;;;2.33;;
80123;SDS011;69433;48.642;9.142;2023-11-21T09:29:56;3.58;;;2.20;;
80123;SDS011;69433;48.642;9.142;2023-11-21T09:32:24;3.25;;;2.20;;
80123;SDS011;69433;48.642;9.142;2023-11-21T09:34:50;3.25;;;2.17;;
80123;SDS011;69433;48.642;9.142;2023-11-21T09:37:22;5.05;;;2.50;;
80123;SDS011;69433;48.642;9.142;2023-11-21T09:39:54;3.05;;;2.20;;
80123;SDS011;69433;48.642;9.142;2023-11-21T09:42:23;3.53;;;2.40;;
80123;SDS011;69433;48.642;9.142;2023-11-21T09:47:47;3.20;;;1.98;;
80123;SDS011;69433;48.642;9.142;2023-11-21T09:50:16;3.15;;;2.22;;
80123;SDS011;69433;48.642;9.142;2023-11-21T09:52:54;3.47;;;2.20;;
80123;SDS011;69433;48.642;9.142;2023-11-21T09:55:34;4.90;;;2.05;;
80123;SDS011;69433;48.642;9.142;2023-11-21T09:58:04;2.90;;;2.03;;
80123;SDS011;69433;48.642;9.142;2023-11-21T10:00:33;3.95;;;2.53;;
80123;SDS011;69433;48.642;9.142;2023-11-21T10:02:59;3.20;;;2.20;;
80123;SDS011;69433;48.642;9.142;2023-11-21T10:05:26;3.35;;;2.40;;
80123;SDS011;69433;48.642;9.142;2023-11-21T10:07:51;5.03;;;2.00;;
80123;SDS011;69433;48.642;9.142;2023-11-21T10:10:27;3.83;;;2.22;;
80123;SDS011;69433;48.642;9.142;2023-11-21T10:12:57;2.80;;;2.10;;
80123;SDS011;69433;48.642;9.142;2023-11-21T10:15:30;3.33;;;2.10;;
80123;SDS011;69433;48.642;9.142;2023-11-21T10:17:56;3.85;;;2.10;;
80123;SDS011;69433;48.642;9.142;2023-11-21T10:20:23;3.40;;;1.83;;
80123;SDS011;69433;48.642;9.142;2023-11-21T10:23:00;3.45;;;2.17;;
80123;SDS011;69433;48.642;9.142;2023-11-21T10:25:29;3.78;;;2.28;;
80123;SDS011;69433;48.642;9.142;2023-11-21T10:27:59;3.50;;;2.20;;
80123;SDS011;69433;48.642;9.142;2023-11-21T10:30:37;4.07;;;2.00;;
80123;SDS011;69433;48.642;9.142;2023-11-21T10:33:04;2.85;;;2.00;;
80123;SDS011;69433;48.642;9.142;2023-11-21T10:35:49;4.05;;;2.60;;
80123;SDS011;69433;48.642;9.142;2023-11-21T10:38:20;3.97;;;2.30;;
80123;SDS011;69433;48.642;9.142;2023-11-21T10:40:53;2.70;;;1.80;;
80123;SDS011;69433;48.642;9.142;2023-11-21T10:43:32;4.70;;;2.08;;
80123;SDS011;69433;48.642;9.142;2023-11-21T10:45:58;2.65;;;1.90;;
80123;SDS011;69433;48.642;9.142;2023-11-21T10:48:36;4.13;;;2.13;;
80123;SDS011;69433;48.642;9.142;2023-11-21T10:51:06;5.50;;;2.20;;
80123;SDS011;69433;48.642;9.142;2023-11-21T10:53:39;3.80;;;2.28;;
80123;SDS011;69433;48.642;9.142;2023-11-21T10:56:08;4.18;;;2.30;;
80123;SDS011;69433;48.642;9.142;2023-11-21T10:58:43;3.40;;;2.30;;
80123;SDS011;69433;48.642;9.142;2023-11-21T11:01:15;3.30;;;2.20;;
80123;SDS011;69433;48.642;9.142;2023-11-21T11:06:32;3.03;;;1.95;;
80123;SDS011;69433;48.642;9.142;2023-11-21T11:08:59;2.80;;;1.98;;
80123;SDS011;69433;48.642;9.142;2023-11-21T11:11:34;3.70;;;2.00;;
80123;SDS011;69433;48.642;9.142;2023-11-21T11:14:04;3.00;;;1.92;;
80123;SDS011;69433;48.642;9.142;2023-11-21T11:16:29;2.95;;;1.70;;
80123;SDS011;69433;48.642;9.142;2023-11-21T11:18:54;4.50;;;1.98;;
80123;SDS011;69433;48.642;9.142;2023-11-21T11:21:37;2.80;;;1.90;;
80123;SDS011;69433;48.642;9.142;2023-11-21T11:30:20;3.05;;;1.85;;
80123;SDS011;69433;48.642;9.142;2023-11-21T11:33:30;2.72;;;1.73;;
80123;SDS011;69433;48.642;9.142;2023-11-21T11:38:48;6.32;;;2.10;;
80123;SDS011;69433;48.642;9.142;2023-11-21T11:41:27;3.20;;;1.80;;
80123;SDS011;69433;48.642;9.142;2023-11-21T11:43:57;3.22;;;1.75;;
80123;SDS011;69433;48.642;9.142;2023-11-21T11:49:23;3.53;;;2.05;;
80123;SDS011;69433;48.642;9.142;2023-11-21T11:52:38;2.67;;;2.00;;
80123;SDS011;69433;48.642;9.142;2023-11-21T11:54:57;4.35;;;2.20;;
80123;SDS011;69433;48.642;9.142;2023-11-21T11:57:31;5.75;;;2.50;;
80123;SDS011;69433;48.642;9.142;2023-11-21T12:03:00;5.65;;;2.63;;
80123;SDS011;69433;48.642;9.142;2023-11-21T12:05:30;4.28;;;2.50;;
80123;SDS011;69433;48.642;9.142;2023-11-21T12:08:08;8.20;;;2.85;;
80123;SDS011;69433;48.642;9.142;2023-11-21T12:10:41;5.38;;;3.03;;
80123;SDS011;69433;48.642;9.142;2023-11-21T12:13:08;4.40;;;2.90;;
80123;SDS011;69433;48.642;9.142;2023-11-21T12:15:41;8.05;;;3.03;;
80123;SDS011;69433;48.642;9.142;2023-11-21T12:18:08;7.70;;;3.58;;
80123;SDS011;69433;48.642;9.142;2023-11-21T12:20:35;7.03;;;3.50;;
80123;SDS011;69433;48.642;9.142;2023-11-21T12:23:07;7.88;;;4.00;;
80123;SDS011;69433;48.642;9.142;2023-11-21T12:25:40;8.05;;;3.90;;
80123;SDS011;69433;48.642;9.142;2023-11-21T12:28:07;7.97;;;4.53;;
80123;SDS011;69433;48.642;9.142;2023-11-21T12:43:15;13.30;;;5.95;;
80123;SDS011;69433;48.642;9.142;2023-11-21T12:54:20;13.55;;;5.05;;
80123;SDS011;69433;48.642;9.142;2023-11-21T13:08:56;10.45;;;4.55;;
80123;SDS011;69433;48.642;9.142;2023-11-21T13:20:06;7.50;;;3.60;;
80123;SDS011;69433;48.642;9.142;2023-11-21T13:32:15;6.35;;;2.35;;
80123;SDS011;69433;48.642;9.142;2023-11-21T13:34:51;2.72;;;1.70;;
80123;SDS011;69433;48.642;9.142;2023-11-21T13:37:19;3.17;;;1.80;;
80123;SDS011;69433;48.642;9.142;2023-11-21T13:59:04;2.97;;;1.70;;
80123;SDS011;69433;48.642;9.142;2023-11-21T14:01:38;3.55;;;2.42;;
80123;SDS011;69433;48.642;9.142;2023-11-21T14:07:46;3.85;;;2.03;;
80123;SDS011;69433;48.642;9.142;2023-11-21T14:13:36;2.85;;;1.90;;
80123;SDS011;69433;48.642;9.142;2023-11-21T14:25:50;2.80;;;2.33;;
80123;SDS011;69433;48.642;9.142;2023-11-21T14:28:17;2.35;;;1.73;;
80123;SDS011;69433;48.642;9.142;2023-11-21T14:31:02;4.60;;;1.90;;
80123;SDS011;69433;48.642;9.142;2023-11-21T14:39:41;2.45;;;1.67;;
80123;SDS011;69433;48.642;9.142;2023-11-21T14:42:10;4.07;;;1.75;;
80123;SDS011;69433;48.642;9.142;2023-11-21T14:54:32;2.95;;;1.65;;
80123;SDS011;69433;48.642;9.142;2023-11-21T14:57:11;2.50;;;1.70;;
80123;SDS011;69433;48.642;9.142;2023-11-21T14:59:45;3.38;;;2.03;;
80123;SDS011;69433;48.642;9.142;2023-11-21T15:05:28;5.85;;;2.15;;
80123;SDS011;69433;48.642;9.142;2023-11-21T15:14:26;2.90;;;2.10;;
80123;SDS011;69433;48.642;9.142;2023-11-21T15:17:04;2.47;;;1.90;;
80123;SDS011;69433;48.642;9.142;2023-11-21T15:22:52;3.17;;;1.80;;
80123;SDS011;69433;48.642;9.142;2023-11-21T15:28:39;3.08;;;2.08;;
80123;SDS011;69433;48.642;9.142;2023-11-21T15:37:00;3.88;;;2.00;;
80123;SDS011;69433;48.642;9.142;2023-11-21T15:39:44;2.22;;;1.60;;
80123;SDS011;69433;48.642;9.142;2023-11-21T15:42:10;2.90;;;1.95;;
80123;SDS011;69433;48.642;9.142;2023-11-21T15:47:57;3.15;;;2.05;;
80123;SDS011;69433;48.642;9.142;2023-11-21T15:56:24;3.00;;;1.90;;
80123;SDS011;69433;48.642;9.142;2023-11-21T15:59:04;3.33;;;1.80;;
80123;SDS011;69433;48.642;9.142;2023-11-21T16:07:32;6.22;;;2.15;;
80123;SDS011;69433;48.642;9.142;2023-11-21T16:13:08;3.10;;;1.88;;
80123;SDS011;69433;48.642;9.142;2023-11-21T16:15:39;3.83;;;2.20;;
80123;SDS011;69433;48.642;9.142;2023-11-21T16:21:26;5.78;;;2.25;;
80123;SDS011;69433;48.642;9.142;2023-11-21T16:29:57;2.80;;;1.98;;
80123;SDS011;69433;48.642;9.142;2023-11-21T16:35:10;5.55;;;2.30;;
80123;SDS011;69433;48.642;9.142;2023-11-21T16:37:50;4.97;;;2.35;;
80123;SDS011;69433;48.642;9.142;2023-11-21T16:40:17;3.58;;;2.20;;
80123;SDS011;69433;48.642;9.142;2023-11-21T16:42:44;4.68;;;2.13;;
80123;SDS011;69433;48.642;9.142;2023-11-21T16:45:10;10.25;;;2.35;;
80123;SDS011;69433;48.642;9.142;2023-11-21T16:51:01;5.30;;;2.80;;
80123;SDS011;69433;48.642;9.142;2023-11-21T16:56:49;4.22;;;2.55;;
80123;SDS011;69433;48.642;9.142;2023-11-21T16:59:15;5.25;;;2.33;;
80123;SDS011;69433;48.642;9.142;2023-11-21T17:11:35;11.20;;;8.00;;
80123;SDS011;69433;48.642;9.142;2023-11-21T17:14:02;15.57;;;12.15;;
80123;SDS011;69433;48.642;9.142;2023-11-21T17:16:33;15.60;;;13.98;;
80123;SDS011;69433;48.642;9.142;2023-11-21T17:19:02;20.08;;;14.88;;
80123;SDS011;69433;48.642;9.142;2023-11-21T17:24:50;16.00;;;14.50;;
80123;SDS011;69433;48.642;9.142;2023-11-21T17:36:08;16.33;;;13.52;;
80123;SDS011;69433;48.642;9.142;2023-11-21T17:38:37;15.05;;;13.63;;
80123;SDS011;69433;48.642;9.142;2023-11-21T17:41:18;15.13;;;13.05;;
80123;SDS011;69433;48.642;9.142;2023-11-21T17:50:12;13.52;;;12.23;;
80123;SDS011;69433;48.642;9.142;2023-11-21T17:52:37;13.68;;;12.38;;
80123;SDS011;69433;48.642;9.142;2023-11-21T17:57:55;13.45;;;12.13;;
80123;SDS011;69433;48.642;9.142;2023-11-21T18:03:25;13.75;;;12.43;;
80123;SDS011;69433;48.642;9.142;2023-11-21T18:05:51;13.88;;;12.43;;
80123;SDS011;69433;48.642;9.142;2023-11-21T18:08:17;14.00;;;12.48;;
80123;SDS011;69433;48.642;9.142;2023-11-21T18:10:55;13.85;;;12.00;;
80123;SDS011;69433;48.642;9.142;2023-11-21T18:22:43;20.45;;;18.35;;
80123;SDS011;69433;48.642;9.142;2023-11-21T18:25:17;21.08;;;18.38;;
80123;SDS011;69433;48.642;9.142;2023-11-21T18:27:43;20.40;;;18.00;;
80123;SDS011;69433;48.642;9.142;2023-11-21T18:33:30;19.27;;;17.23;;
80123;SDS011;69433;48.642;9.142;2023-11-21T18:38:48;18.65;;;16.75;;
80123;SDS011;69433;48.642;9.142;2023-11-21T18:50:51;16.80;;;15.10;;
80123;SDS011;69433;48.642;9.142;2023-11-21T18:53:22;17.42;;;14.80;;
80123;SDS011;69433;48.642;9.142;2023-11-21T18:55:53;16.23;;;14.50;;
80123;SDS011;69433;48.642;9.142;2023-11-21T18:58:19;16.38;;;14.68;;
80123;SDS011;69433;48.642;9.142;2023-11-21T19:00:44;16.50;;;14.80;;